sensor_id;sensor_type;location;lat;lon;timestamp;P1;durP1;ratioP1;P2;durP2;ratioP2
76210;SDS011;65003;49.518;11.280;2023-04-25T00:00:19;8.97;;;6.20;;
76210;SDS011;65003;49.518;11.280;2023-04-25T00:02:46;4.83;;;4.23;;
76210;SDS011;65003;49.518;11.280;2023-04-25T00:05:13;5.10;;;3.90;;
76210;SDS011;65003;49.518;11.280;2023-04-25T00:07:40;4.53;;;4.00;;
76210;SDS011;65003;49.518;11.280;2023-04-25T00:10:07;4.30;;;3.40;;
76210;SDS011;65003;49.518;11.280;2023-04-25T00:12:34;4.53;;;4.00;;
76210;SDS011;65003;49.518;11.280;2023-04-25T00:15:01;4.43;;;3.80;;
76210;SDS011;65003;49.518;11.280;2023-04-25T00:17:27;5.83;;;3.60;;
76210;SDS011;65003;49.518;11.280;2023-04-25T00:19:54;6.60;;;4.07;;
76210;SDS011;65003;49.518;11.280;2023-04-25T00:22:21;5.27;;;4.30;;
76210;SDS011;65003;49.518;11.280;2023-04-25T00:24:47;7.17;;;4.10;;
76210;SDS011;65003;49.518;11.280;2023-04-25T00:27:14;5.93;;;5.03;;
76210;SDS011;65003;49.518;11.280;2023-04-25T00:29:40;5.43;;;4.20;;
76210;SDS011;65003;49.518;11.280;2023-04-25T00:32:07;6.60;;;4.60;;
76210;SDS011;65003;49.518;11.280;2023-04-25T00:34:34;5.40;;;4.10;;
76210;SDS011;65003;49.518;11.280;2023-04-25T00:37:00;6.77;;;5.17;;
76210;SDS011;65003;49.518;11.280;2023-04-25T00:39:27;4.33;;;3.93;;
76210;SDS011;65003;49.518;11.280;2023-04-25T00:41:54;4.03;;;3.63;;
76210;SDS011;65003;49.518;11.280;2023-04-25T00:44:20;4.30;;;3.90;;
76210;SDS011;65003;49.518;11.280;2023-04-25T00:46:47;4.70;;;3.67;;
76210;SDS011;65003;49.518;11.280;2023-04-25T00:49:13;4.53;;;3.70;;
76210;SDS011;65003;49.518;11.280;2023-04-25T00:51:40;4.77;;;3.70;;
76210;SDS011;65003;49.518;11.280;2023-04-25T00:54:07;5.07;;;3.90;;
76210;SDS011;65003;49.518;11.280;2023-04-25T00:56:33;4.20;;;3.57;;
76210;SDS011;65003;49.518;11.280;2023-04-25T00:59:00;9.17;;;3.70;;
76210;SDS011;65003;49.518;11.280;2023-04-25T01:01:26;5.27;;;3.77;;
76210;SDS011;65003;49.518;11.280;2023-04-25T01:03:53;4.93;;;4.00;;
76210;SDS011;65003;49.518;11.280;2023-04-25T01:06:20;3.73;;;3.40;;
76210;SDS011;65003;49.518;11.280;2023-04-25T01:08:46;3.77;;;3.27;;
76210;SDS011;65003;49.518;11.280;2023-04-25T01:11:13;3.30;;;3.00;;
76210;SDS011;65003;49.518;11.280;2023-04-25T01:13:39;5.20;;;3.30;;
76210;SDS011;65003;49.518;11.280;2023-04-25T01:16:06;4.53;;;4.00;;
76210;SDS011;65003;49.518;11.280;2023-04-25T01:18:33;4.37;;;3.47;;
76210;SDS011;65003;49.518;11.280;2023-04-25T01:21:06;4.30;;;3.27;;
76210;SDS011;65003;49.518;11.280;2023-04-25T01:23:28;6.67;;;3.60;;
76210;SDS011;65003;49.518;11.280;2023-04-25T01:25:55;3.70;;;3.10;;
76210;SDS011;65003;49.518;11.280;2023-04-25T01:28:22;5.17;;;3.53;;
76210;SDS011;65003;49.518;11.280;2023-04-25T01:30:48;4.50;;;3.67;;
76210;SDS011;65003;49.518;11.280;2023-04-25T01:33:15;6.83;;;3.57;;
76210;SDS011;65003;49.518;11.280;2023-04-25T01:35:41;5.60;;;3.47;;
76210;SDS011;65003;49.518;11.280;2023-04-25T01:38:08;4.80;;;3.63;;
76210;SDS011;65003;49.518;11.280;2023-04-25T01:40:35;4.10;;;3.30;;
76210;SDS011;65003;49.518;11.280;2023-04-25T01:43:01;3.93;;;3.10;;
76210;SDS011;65003;49.518;11.280;2023-04-25T01:45:28;4.67;;;3.37;;
76210;SDS011;65003;49.518;11.280;2023-04-25T01:47:55;5.50;;;3.40;;
76210;SDS011;65003;49.518;11.280;2023-04-25T01:50:21;3.77;;;3.23;;
76210;SDS011;65003;49.518;11.280;2023-04-25T01:52:48;4.93;;;3.70;;
76210;SDS011;65003;49.518;11.280;2023-04-25T01:55:14;4.57;;;3.17;;
76210;SDS011;65003;49.518;11.280;2023-04-25T01:57:41;4.10;;;3.37;;
76210;SDS011;65003;49.518;11.280;2023-04-25T02:00:08;4.47;;;3.20;;
76210;SDS011;65003;49.518;11.280;2023-04-25T02:02:35;3.30;;;2.87;;
76210;SDS011;65003;49.518;11.280;2023-04-25T02:05:02;5.07;;;3.57;;
76210;SDS011;65003;49.518;11.280;2023-04-25T02:07:28;3.17;;;2.87;;
76210;SDS011;65003;49.518;11.280;2023-04-25T02:09:55;5.73;;;3.33;;
76210;SDS011;65003;49.518;11.280;2023-04-25T02:12:21;6.13;;;3.57;;
76210;SDS011;65003;49.518;11.280;2023-04-25T02:14:48;5.53;;;4.07;;
76210;SDS011;65003;49.518;11.280;2023-04-25T02:17:15;5.83;;;3.83;;
76210;SDS011;65003;49.518;11.280;2023-04-25T02:19:41;4.57;;;3.90;;
76210;SDS011;65003;49.518;11.280;2023-04-25T02:22:08;5.10;;;3.93;;
76210;SDS011;65003;49.518;11.280;2023-04-25T02:24:34;4.07;;;3.67;;
76210;SDS011;65003;49.518;11.280;2023-04-25T02:27:01;6.70;;;3.70;;
76210;SDS011;65003;49.518;11.280;2023-04-25T02:29:28;5.83;;;3.87;;
76210;SDS011;65003;49.518;11.280;2023-04-25T02:31:54;6.27;;;4.00;;
76210;SDS011;65003;49.518;11.280;2023-04-25T02:34:21;3.93;;;3.50;;
76210;SDS011;65003;49.518;11.280;2023-04-25T02:36:48;4.42;;;3.65;;
76210;SDS011;65003;49.518;11.280;2023-04-25T02:39:14;5.07;;;3.60;;
76210;SDS011;65003;49.518;11.280;2023-04-25T02:41:40;6.77;;;3.50;;
76210;SDS011;65003;49.518;11.280;2023-04-25T02:44:07;4.87;;;3.53;;
76210;SDS011;65003;49.518;11.280;2023-04-25T02:46:34;5.80;;;4.00;;
76210;SDS011;65003;49.518;11.280;2023-04-25T02:49:00;4.50;;;3.80;;
76210;SDS011;65003;49.518;11.280;2023-04-25T02:51:27;3.93;;;3.47;;
76210;SDS011;65003;49.518;11.280;2023-04-25T02:53:54;4.20;;;3.50;;
76210;SDS011;65003;49.518;11.280;2023-04-25T02:56:20;5.80;;;3.70;;
76210;SDS011;65003;49.518;11.280;2023-04-25T02:58:47;8.47;;;4.20;;
76210;SDS011;65003;49.518;11.280;2023-04-25T03:01:14;6.17;;;3.80;;
76210;SDS011;65003;49.518;11.280;2023-04-25T03:03:40;5.87;;;4.20;;
76210;SDS011;65003;49.518;11.280;2023-04-25T03:06:07;4.47;;;3.70;;
76210;SDS011;65003;49.518;11.280;2023-04-25T03:08:33;4.00;;;3.53;;
76210;SDS011;65003;49.518;11.280;2023-04-25T03:11:00;4.23;;;3.70;;
76210;SDS011;65003;49.518;11.280;2023-04-25T03:13:26;5.10;;;3.87;;
76210;SDS011;65003;49.518;11.280;2023-04-25T03:15:53;4.17;;;3.63;;
76210;SDS011;65003;49.518;11.280;2023-04-25T03:18:20;4.77;;;3.57;;
76210;SDS011;65003;49.518;11.280;2023-04-25T03:20:46;5.20;;;4.00;;
76210;SDS011;65003;49.518;11.280;2023-04-25T03:23:13;5.07;;;4.00;;
76210;SDS011;65003;49.518;11.280;2023-04-25T03:25:40;6.80;;;4.43;;
76210;SDS011;65003;49.518;11.280;2023-04-25T03:28:06;5.97;;;3.97;;
76210;SDS011;65003;49.518;11.280;2023-04-25T03:30:33;5.47;;;4.57;;
76210;SDS011;65003;49.518;11.280;2023-04-25T03:32:59;5.10;;;4.20;;
76210;SDS011;65003;49.518;11.280;2023-04-25T03:35:26;4.33;;;3.53;;
76210;SDS011;65003;49.518;11.280;2023-04-25T03:37:52;5.00;;;4.40;;
76210;SDS011;65003;49.518;11.280;2023-04-25T03:40:19;7.93;;;4.57;;
76210;SDS011;65003;49.518;11.280;2023-04-25T03:42:46;5.30;;;4.80;;
76210;SDS011;65003;49.518;11.280;2023-04-25T03:45:12;10.10;;;4.50;;
76210;SDS011;65003;49.518;11.280;2023-04-25T03:47:39;7.80;;;5.37;;
76210;SDS011;65003;49.518;11.280;2023-04-25T03:50:06;6.87;;;4.97;;
76210;SDS011;65003;49.518;11.280;2023-04-25T03:52:32;5.60;;;4.67;;
76210;SDS011;65003;49.518;11.280;2023-04-25T03:54:59;5.30;;;4.23;;
76210;SDS011;65003;49.518;11.280;2023-04-25T03:57:26;6.03;;;4.80;;
76210;SDS011;65003;49.518;11.280;2023-04-25T03:59:52;7.97;;;5.80;;
76210;SDS011;65003;49.518;11.280;2023-04-25T04:02:19;7.03;;;4.87;;
76210;SDS011;65003;49.518;11.280;2023-04-25T04:04:46;8.53;;;5.13;;
76210;SDS011;65003;49.518;11.280;2023-04-25T04:07:13;7.37;;;5.57;;
76210;SDS011;65003;49.518;11.280;2023-04-25T04:09:40;5.63;;;5.07;;
76210;SDS011;65003;49.518;11.280;2023-04-25T04:12:06;7.17;;;5.63;;
76210;SDS011;65003;49.518;11.280;2023-04-25T04:14:33;9.90;;;6.63;;
76210;SDS011;65003;49.518;11.280;2023-04-25T04:16:59;7.57;;;5.30;;
76210;SDS011;65003;49.518;11.280;2023-04-25T04:19:26;8.13;;;5.83;;
76210;SDS011;65003;49.518;11.280;2023-04-25T04:21:52;7.73;;;5.60;;
76210;SDS011;65003;49.518;11.280;2023-04-25T04:24:19;6.87;;;5.50;;
76210;SDS011;65003;49.518;11.280;2023-04-25T04:26:46;8.33;;;5.07;;
76210;SDS011;65003;49.518;11.280;2023-04-25T04:29:13;7.53;;;5.73;;
76210;SDS011;65003;49.518;11.280;2023-04-25T04:31:40;5.37;;;4.73;;
76210;SDS011;65003;49.518;11.280;2023-04-25T04:34:06;6.67;;;4.43;;
76210;SDS011;65003;49.518;11.280;2023-04-25T04:36:33;6.60;;;5.20;;
76210;SDS011;65003;49.518;11.280;2023-04-25T04:39:00;5.83;;;4.83;;
76210;SDS011;65003;49.518;11.280;2023-04-25T04:41:26;6.63;;;4.57;;
76210;SDS011;65003;49.518;11.280;2023-04-25T04:43:53;7.33;;;4.97;;
76210;SDS011;65003;49.518;11.280;2023-04-25T04:46:19;6.43;;;4.83;;
76210;SDS011;65003;49.518;11.280;2023-04-25T04:48:46;5.53;;;4.67;;
76210;SDS011;65003;49.518;11.280;2023-04-25T04:51:13;5.90;;;4.73;;
76210;SDS011;65003;49.518;11.280;2023-04-25T04:53:40;6.13;;;4.83;;
76210;SDS011;65003;49.518;11.280;2023-04-25T04:56:07;6.33;;;5.20;;
76210;SDS011;65003;49.518;11.280;2023-04-25T04:58:33;7.23;;;4.80;;
76210;SDS011;65003;49.518;11.280;2023-04-25T05:01:00;6.63;;;4.73;;
76210;SDS011;65003;49.518;11.280;2023-04-25T05:03:26;7.33;;;5.13;;
76210;SDS011;65003;49.518;11.280;2023-04-25T05:05:53;10.37;;;7.50;;
76210;SDS011;65003;49.518;11.280;2023-04-25T05:08:20;6.87;;;6.17;;
76210;SDS011;65003;49.518;11.280;2023-04-25T05:10:48;10.17;;;8.37;;
76210;SDS011;65003;49.518;11.280;2023-04-25T05:13:14;15.50;;;12.40;;
76210;SDS011;65003;49.518;11.280;2023-04-25T05:15:41;11.57;;;10.40;;
76210;SDS011;65003;49.518;11.280;2023-04-25T05:18:07;9.50;;;7.00;;
76210;SDS011;65003;49.518;11.280;2023-04-25T05:20:34;12.07;;;7.23;;
76210;SDS011;65003;49.518;11.280;2023-04-25T05:23:01;5.97;;;4.80;;
76210;SDS011;65003;49.518;11.280;2023-04-25T05:25:27;8.27;;;4.87;;
76210;SDS011;65003;49.518;11.280;2023-04-25T05:27:54;5.67;;;4.83;;
76210;SDS011;65003;49.518;11.280;2023-04-25T05:30:21;5.13;;;4.63;;
76210;SDS011;65003;49.518;11.280;2023-04-25T05:32:47;7.63;;;6.63;;
76210;SDS011;65003;49.518;11.280;2023-04-25T05:35:14;6.10;;;5.30;;
76210;SDS011;65003;49.518;11.280;2023-04-25T05:37:40;29.80;;;27.50;;
76210;SDS011;65003;49.518;11.280;2023-04-25T05:40:07;11.27;;;10.27;;
76210;SDS011;65003;49.518;11.280;2023-04-25T05:42:34;7.40;;;6.53;;
76210;SDS011;65003;49.518;11.280;2023-04-25T05:45:01;8.03;;;6.73;;
76210;SDS011;65003;49.518;11.280;2023-04-25T05:47:27;5.73;;;5.23;;
76210;SDS011;65003;49.518;11.280;2023-04-25T05:49:54;5.83;;;4.80;;
76210;SDS011;65003;49.518;11.280;2023-04-25T05:52:21;5.03;;;4.53;;
76210;SDS011;65003;49.518;11.280;2023-04-25T05:54:48;6.43;;;4.93;;
76210;SDS011;65003;49.518;11.280;2023-04-25T05:57:19;8.27;;;4.57;;
76210;SDS011;65003;49.518;11.280;2023-04-25T05:59:47;5.33;;;4.83;;
76210;SDS011;65003;49.518;11.280;2023-04-25T06:02:13;4.87;;;4.40;;
76210;SDS011;65003;49.518;11.280;2023-04-25T06:04:40;5.47;;;4.20;;
76210;SDS011;65003;49.518;11.280;2023-04-25T06:07:06;6.93;;;4.40;;
76210;SDS011;65003;49.518;11.280;2023-04-25T06:09:33;4.20;;;3.80;;
76210;SDS011;65003;49.518;11.280;2023-04-25T06:12:00;4.43;;;3.80;;
76210;SDS011;65003;49.518;11.280;2023-04-25T06:14:26;5.23;;;4.07;;
76210;SDS011;65003;49.518;11.280;2023-04-25T06:16:53;4.80;;;3.93;;
76210;SDS011;65003;49.518;11.280;2023-04-25T06:19:21;6.20;;;3.80;;
76210;SDS011;65003;49.518;11.280;2023-04-25T06:21:48;6.67;;;4.20;;
76210;SDS011;65003;49.518;11.280;2023-04-25T06:24:14;6.27;;;4.43;;
76210;SDS011;65003;49.518;11.280;2023-04-25T06:26:41;4.70;;;4.20;;
76210;SDS011;65003;49.518;11.280;2023-04-25T06:29:08;5.73;;;3.93;;
76210;SDS011;65003;49.518;11.280;2023-04-25T06:31:34;4.73;;;3.83;;
76210;SDS011;65003;49.518;11.280;2023-04-25T06:34:01;4.63;;;3.67;;
76210;SDS011;65003;49.518;11.280;2023-04-25T06:36:27;4.07;;;3.30;;
76210;SDS011;65003;49.518;11.280;2023-04-25T06:38:54;6.90;;;4.73;;
76210;SDS011;65003;49.518;11.280;2023-04-25T06:41:20;6.23;;;3.80;;
76210;SDS011;65003;49.518;11.280;2023-04-25T06:43:47;4.30;;;3.40;;
76210;SDS011;65003;49.518;11.280;2023-04-25T06:46:14;4.30;;;3.77;;
76210;SDS011;65003;49.518;11.280;2023-04-25T06:48:40;4.50;;;4.00;;
76210;SDS011;65003;49.518;11.280;2023-04-25T06:51:07;4.10;;;3.50;;
76210;SDS011;65003;49.518;11.280;2023-04-25T06:53:33;4.47;;;4.07;;
76210;SDS011;65003;49.518;11.280;2023-04-25T06:56:00;4.57;;;3.73;;
76210;SDS011;65003;49.518;11.280;2023-04-25T06:58:27;4.43;;;3.97;;
76210;SDS011;65003;49.518;11.280;2023-04-25T07:00:53;3.67;;;3.30;;
76210;SDS011;65003;49.518;11.280;2023-04-25T07:03:20;4.47;;;3.83;;
76210;SDS011;65003;49.518;11.280;2023-04-25T07:05:46;5.97;;;4.70;;
76210;SDS011;65003;49.518;11.280;2023-04-25T07:08:13;6.33;;;4.20;;
76210;SDS011;65003;49.518;11.280;2023-04-25T07:10:39;4.40;;;3.93;;
76210;SDS011;65003;49.518;11.280;2023-04-25T07:13:06;5.13;;;4.20;;
76210;SDS011;65003;49.518;11.280;2023-04-25T07:15:33;4.50;;;3.90;;
76210;SDS011;65003;49.518;11.280;2023-04-25T07:17:59;5.90;;;4.10;;
76210;SDS011;65003;49.518;11.280;2023-04-25T07:20:26;6.07;;;4.40;;
76210;SDS011;65003;49.518;11.280;2023-04-25T07:22:52;6.57;;;4.80;;
76210;SDS011;65003;49.518;11.280;2023-04-25T07:25:19;6.50;;;5.27;;
76210;SDS011;65003;49.518;11.280;2023-04-25T07:27:45;7.33;;;5.13;;
76210;SDS011;65003;49.518;11.280;2023-04-25T07:30:12;7.40;;;5.13;;
76210;SDS011;65003;49.518;11.280;2023-04-25T07:32:39;6.33;;;5.10;;
76210;SDS011;65003;49.518;11.280;2023-04-25T07:35:05;5.83;;;5.00;;
76210;SDS011;65003;49.518;11.280;2023-04-25T07:37:33;5.63;;;4.77;;
76210;SDS011;65003;49.518;11.280;2023-04-25T07:39:59;7.93;;;5.33;;
76210;SDS011;65003;49.518;11.280;2023-04-25T07:42:25;5.27;;;4.70;;
76210;SDS011;65003;49.518;11.280;2023-04-25T07:44:52;6.10;;;5.43;;
76210;SDS011;65003;49.518;11.280;2023-04-25T07:47:19;6.20;;;3.50;;
76210;SDS011;65003;49.518;11.280;2023-04-25T07:49:45;3.80;;;3.30;;
76210;SDS011;65003;49.518;11.280;2023-04-25T07:52:12;4.40;;;3.60;;
76210;SDS011;65003;49.518;11.280;2023-04-25T07:54:39;7.10;;;3.90;;
76210;SDS011;65003;49.518;11.280;2023-04-25T07:57:05;3.87;;;3.10;;
76210;SDS011;65003;49.518;11.280;2023-04-25T07:59:32;3.43;;;3.13;;
76210;SDS011;65003;49.518;11.280;2023-04-25T08:01:59;4.43;;;3.10;;
76210;SDS011;65003;49.518;11.280;2023-04-25T08:04:25;3.10;;;2.57;;
76210;SDS011;65003;49.518;11.280;2023-04-25T08:06:52;5.47;;;2.80;;
76210;SDS011;65003;49.518;11.280;2023-04-25T08:09:19;3.17;;;2.80;;
76210;SDS011;65003;49.518;11.280;2023-04-25T08:11:45;4.07;;;2.73;;
76210;SDS011;65003;49.518;11.280;2023-04-25T08:14:12;4.20;;;2.50;;
76210;SDS011;65003;49.518;11.280;2023-04-25T08:16:39;3.33;;;2.30;;
76210;SDS011;65003;49.518;11.280;2023-04-25T08:19:05;3.90;;;2.30;;
76210;SDS011;65003;49.518;11.280;2023-04-25T08:21:32;3.37;;;2.70;;
76210;SDS011;65003;49.518;11.280;2023-04-25T08:23:58;3.50;;;2.23;;
76210;SDS011;65003;49.518;11.280;2023-04-25T08:26:25;3.67;;;2.50;;
76210;SDS011;65003;49.518;11.280;2023-04-25T08:28:52;3.10;;;2.00;;
76210;SDS011;65003;49.518;11.280;2023-04-25T08:31:18;2.17;;;1.70;;
76210;SDS011;65003;49.518;11.280;2023-04-25T08:33:45;3.40;;;1.97;;
76210;SDS011;65003;49.518;11.280;2023-04-25T08:36:12;2.53;;;1.60;;
76210;SDS011;65003;49.518;11.280;2023-04-25T08:38:38;1.83;;;1.53;;
76210;SDS011;65003;49.518;11.280;2023-04-25T08:41:05;2.33;;;2.00;;
76210;SDS011;65003;49.518;11.280;2023-04-25T08:43:32;3.30;;;2.07;;
76210;SDS011;65003;49.518;11.280;2023-04-25T08:45:59;3.17;;;2.17;;
76210;SDS011;65003;49.518;11.280;2023-04-25T08:48:26;2.87;;;2.43;;
76210;SDS011;65003;49.518;11.280;2023-04-25T08:50:52;5.80;;;2.70;;
76210;SDS011;65003;49.518;11.280;2023-04-25T08:53:22;3.13;;;2.00;;
76210;SDS011;65003;49.518;11.280;2023-04-25T08:55:48;6.87;;;2.77;;
76210;SDS011;65003;49.518;11.280;2023-04-25T08:58:14;4.17;;;2.50;;
76210;SDS011;65003;49.518;11.280;2023-04-25T09:00:41;4.67;;;2.87;;
76210;SDS011;65003;49.518;11.280;2023-04-25T09:03:08;4.50;;;2.80;;
76210;SDS011;65003;49.518;11.280;2023-04-25T09:05:34;4.57;;;2.70;;
76210;SDS011;65003;49.518;11.280;2023-04-25T09:08:01;5.10;;;2.60;;
76210;SDS011;65003;49.518;11.280;2023-04-25T09:10:27;2.47;;;2.27;;
76210;SDS011;65003;49.518;11.280;2023-04-25T09:13:06;4.73;;;2.50;;
76210;SDS011;65003;49.518;11.280;2023-04-25T09:15:32;3.13;;;2.83;;
76210;SDS011;65003;49.518;11.280;2023-04-25T09:17:59;3.67;;;2.47;;
76210;SDS011;65003;49.518;11.280;2023-04-25T09:20:26;6.03;;;3.27;;
76210;SDS011;65003;49.518;11.280;2023-04-25T09:25:27;3.43;;;2.83;;
76210;SDS011;65003;49.518;11.280;2023-04-25T09:27:53;3.47;;;2.93;;
76210;SDS011;65003;49.518;11.280;2023-04-25T09:30:28;3.47;;;3.07;;
76210;SDS011;65003;49.518;11.280;2023-04-25T09:32:46;3.97;;;2.27;;
76210;SDS011;65003;49.518;11.280;2023-04-25T09:35:23;3.40;;;2.83;;
76210;SDS011;65003;49.518;11.280;2023-04-25T09:37:40;2.90;;;2.70;;
76210;SDS011;65003;49.518;11.280;2023-04-25T09:40:06;2.93;;;2.20;;
76210;SDS011;65003;49.518;11.280;2023-04-25T09:42:33;3.07;;;2.07;;
76210;SDS011;65003;49.518;11.280;2023-04-25T09:45:00;3.67;;;2.57;;
76210;SDS011;65003;49.518;11.280;2023-04-25T09:47:26;3.73;;;2.80;;
76210;SDS011;65003;49.518;11.280;2023-04-25T09:49:53;3.07;;;2.50;;
76210;SDS011;65003;49.518;11.280;2023-04-25T09:52:20;4.47;;;2.70;;
76210;SDS011;65003;49.518;11.280;2023-04-25T09:54:47;3.47;;;2.80;;
76210;SDS011;65003;49.518;11.280;2023-04-25T09:57:14;3.50;;;2.77;;
76210;SDS011;65003;49.518;11.280;2023-04-25T09:59:43;4.97;;;2.87;;
76210;SDS011;65003;49.518;11.280;2023-04-25T10:02:09;3.57;;;2.23;;
76210;SDS011;65003;49.518;11.280;2023-04-25T10:04:35;4.23;;;2.67;;
76210;SDS011;65003;49.518;11.280;2023-04-25T10:07:04;4.77;;;2.57;;
76210;SDS011;65003;49.518;11.280;2023-04-25T10:09:29;2.97;;;2.40;;
76210;SDS011;65003;49.518;11.280;2023-04-25T10:11:56;3.23;;;2.10;;
76210;SDS011;65003;49.518;11.280;2023-04-25T10:14:23;2.80;;;2.30;;
76210;SDS011;65003;49.518;11.280;2023-04-25T10:16:49;2.93;;;2.33;;
76210;SDS011;65003;49.518;11.280;2023-04-25T10:19:16;2.47;;;2.10;;
76210;SDS011;65003;49.518;11.280;2023-04-25T10:21:48;3.43;;;2.37;;
76210;SDS011;65003;49.518;11.280;2023-04-25T10:24:16;2.80;;;2.30;;
76210;SDS011;65003;49.518;11.280;2023-04-25T10:26:42;3.57;;;2.10;;
76210;SDS011;65003;49.518;11.280;2023-04-25T10:29:09;2.20;;;2.00;;
76210;SDS011;65003;49.518;11.280;2023-04-25T10:31:44;3.50;;;2.50;;
76210;SDS011;65003;49.518;11.280;2023-04-25T10:34:02;2.60;;;2.40;;
76210;SDS011;65003;49.518;11.280;2023-04-25T10:36:30;4.07;;;2.40;;
76210;SDS011;65003;49.518;11.280;2023-04-25T10:38:58;2.67;;;2.20;;
76210;SDS011;65003;49.518;11.280;2023-04-25T10:41:24;3.50;;;2.13;;
76210;SDS011;65003;49.518;11.280;2023-04-25T10:43:58;3.73;;;2.40;;
76210;SDS011;65003;49.518;11.280;2023-04-25T10:46:19;3.50;;;2.00;;
76210;SDS011;65003;49.518;11.280;2023-04-25T10:48:52;2.77;;;1.47;;
76210;SDS011;65003;49.518;11.280;2023-04-25T10:51:19;3.13;;;1.50;;
76210;SDS011;65003;49.518;11.280;2023-04-25T10:53:45;3.97;;;1.47;;
76210;SDS011;65003;49.518;11.280;2023-04-25T10:56:22;2.53;;;1.57;;
76210;SDS011;65003;49.518;11.280;2023-04-25T10:58:49;2.63;;;1.63;;
76210;SDS011;65003;49.518;11.280;2023-04-25T11:01:15;3.23;;;1.50;;
76210;SDS011;65003;49.518;11.280;2023-04-25T11:03:42;1.70;;;1.30;;
76210;SDS011;65003;49.518;11.280;2023-04-25T11:06:45;2.13;;;1.30;;
76210;SDS011;65003;49.518;11.280;2023-04-25T11:08:54;3.07;;;1.23;;
76210;SDS011;65003;49.518;11.280;2023-04-25T11:11:20;1.93;;;1.80;;
76210;SDS011;65003;49.518;11.280;2023-04-25T11:13:47;2.73;;;1.80;;
76210;SDS011;65003;49.518;11.280;2023-04-25T11:16:13;4.50;;;1.87;;
76210;SDS011;65003;49.518;11.280;2023-04-25T11:18:41;3.50;;;1.90;;
76210;SDS011;65003;49.518;11.280;2023-04-25T11:21:07;4.63;;;2.30;;
76210;SDS011;65003;49.518;11.280;2023-04-25T11:23:33;4.37;;;2.03;;
76210;SDS011;65003;49.518;11.280;2023-04-25T11:26:00;4.47;;;2.03;;
76210;SDS011;65003;49.518;11.280;2023-04-25T11:28:27;2.57;;;1.87;;
76210;SDS011;65003;49.518;11.280;2023-04-25T11:30:53;2.13;;;1.87;;
76210;SDS011;65003;49.518;11.280;2023-04-25T11:33:23;2.70;;;1.80;;
76210;SDS011;65003;49.518;11.280;2023-04-25T11:35:49;2.67;;;2.10;;
76210;SDS011;65003;49.518;11.280;2023-04-25T11:38:16;2.23;;;2.03;;
76210;SDS011;65003;49.518;11.280;2023-04-25T11:40:42;4.43;;;1.93;;
76210;SDS011;65003;49.518;11.280;2023-04-25T11:43:09;2.30;;;1.60;;
76210;SDS011;65003;49.518;11.280;2023-04-25T11:45:36;4.67;;;1.90;;
76210;SDS011;65003;49.518;11.280;2023-04-25T11:48:03;2.73;;;1.53;;
76210;SDS011;65003;49.518;11.280;2023-04-25T11:50:30;2.20;;;1.37;;
76210;SDS011;65003;49.518;11.280;2023-04-25T11:52:57;1.60;;;1.23;;
76210;SDS011;65003;49.518;11.280;2023-04-25T11:55:23;3.63;;;1.40;;
76210;SDS011;65003;49.518;11.280;2023-04-25T11:57:50;1.40;;;1.30;;
76210;SDS011;65003;49.518;11.280;2023-04-25T12:00:18;1.80;;;1.00;;
76210;SDS011;65003;49.518;11.280;2023-04-25T12:02:45;1.63;;;1.10;;
76210;SDS011;65003;49.518;11.280;2023-04-25T12:05:12;2.30;;;1.10;;
76210;SDS011;65003;49.518;11.280;2023-04-25T12:07:38;2.67;;;1.20;;
76210;SDS011;65003;49.518;11.280;2023-04-25T12:10:07;2.57;;;1.13;;
76210;SDS011;65003;49.518;11.280;2023-04-25T12:12:34;0.80;;;0.80;;
76210;SDS011;65003;49.518;11.280;2023-04-25T12:17:34;0.70;;;0.70;;
76210;SDS011;65003;49.518;11.280;2023-04-25T12:20:05;1.93;;;0.83;;
76210;SDS011;65003;49.518;11.280;2023-04-25T12:22:28;1.03;;;0.80;;
76210;SDS011;65003;49.518;11.280;2023-04-25T12:24:54;0.97;;;0.90;;
76210;SDS011;65003;49.518;11.280;2023-04-25T12:27:21;1.87;;;1.10;;
76210;SDS011;65003;49.518;11.280;2023-04-25T12:29:50;1.10;;;1.00;;
76210;SDS011;65003;49.518;11.280;2023-04-25T12:32:17;1.30;;;0.97;;
76210;SDS011;65003;49.518;11.280;2023-04-25T12:34:43;0.87;;;0.83;;
76210;SDS011;65003;49.518;11.280;2023-04-25T12:37:10;0.97;;;0.90;;
76210;SDS011;65003;49.518;11.280;2023-04-25T12:39:36;2.00;;;0.90;;
76210;SDS011;65003;49.518;11.280;2023-04-25T12:42:03;1.17;;;1.00;;
76210;SDS011;65003;49.518;11.280;2023-04-25T12:44:29;1.23;;;1.00;;
76210;SDS011;65003;49.518;11.280;2023-04-25T12:46:56;1.93;;;0.97;;
76210;SDS011;65003;49.518;11.280;2023-04-25T12:49:23;1.40;;;1.30;;
76210;SDS011;65003;49.518;11.280;2023-04-25T12:51:49;1.10;;;0.80;;
76210;SDS011;65003;49.518;11.280;2023-04-25T12:54:16;1.87;;;1.20;;
76210;SDS011;65003;49.518;11.280;2023-04-25T12:56:42;2.20;;;1.40;;
76210;SDS011;65003;49.518;11.280;2023-04-25T12:59:09;1.40;;;1.13;;
76210;SDS011;65003;49.518;11.280;2023-04-25T13:01:36;2.20;;;1.10;;
76210;SDS011;65003;49.518;11.280;2023-04-25T13:04:02;1.30;;;1.13;;
76210;SDS011;65003;49.518;11.280;2023-04-25T13:06:29;1.57;;;1.03;;
76210;SDS011;65003;49.518;11.280;2023-04-25T13:08:57;1.33;;;1.10;;
76210;SDS011;65003;49.518;11.280;2023-04-25T13:11:23;1.20;;;1.10;;
76210;SDS011;65003;49.518;11.280;2023-04-25T13:13:50;2.50;;;1.20;;
76210;SDS011;65003;49.518;11.280;2023-04-25T13:16:17;1.10;;;0.90;;
76210;SDS011;65003;49.518;11.280;2023-04-25T13:18:44;1.20;;;1.10;;
76210;SDS011;65003;49.518;11.280;2023-04-25T13:21:10;1.10;;;1.00;;
76210;SDS011;65003;49.518;11.280;2023-04-25T13:23:37;1.10;;;1.00;;
76210;SDS011;65003;49.518;11.280;2023-04-25T13:26:03;1.93;;;1.10;;
76210;SDS011;65003;49.518;11.280;2023-04-25T13:28:30;2.67;;;1.43;;
76210;SDS011;65003;49.518;11.280;2023-04-25T13:30:57;3.50;;;1.30;;
76210;SDS011;65003;49.518;11.280;2023-04-25T13:33:23;1.30;;;1.20;;
76210;SDS011;65003;49.518;11.280;2023-04-25T13:35:50;3.27;;;1.37;;
76210;SDS011;65003;49.518;11.280;2023-04-25T13:38:17;3.13;;;1.30;;
76210;SDS011;65003;49.518;11.280;2023-04-25T13:40:43;2.50;;;1.27;;
76210;SDS011;65003;49.518;11.280;2023-04-25T13:43:10;1.60;;;1.40;;
76210;SDS011;65003;49.518;11.280;2023-04-25T13:45:36;2.30;;;1.47;;
76210;SDS011;65003;49.518;11.280;2023-04-25T13:48:03;2.17;;;1.30;;
76210;SDS011;65003;49.518;11.280;2023-04-25T13:50:30;1.27;;;1.17;;
76210;SDS011;65003;49.518;11.280;2023-04-25T13:52:56;2.37;;;1.33;;
76210;SDS011;65003;49.518;11.280;2023-04-25T13:55:23;2.33;;;1.33;;
76210;SDS011;65003;49.518;11.280;2023-04-25T13:57:49;1.60;;;1.50;;
76210;SDS011;65003;49.518;11.280;2023-04-25T14:00:16;2.90;;;1.40;;
76210;SDS011;65003;49.518;11.280;2023-04-25T14:02:43;1.80;;;1.53;;
76210;SDS011;65003;49.518;11.280;2023-04-25T14:05:10;2.40;;;1.17;;
76210;SDS011;65003;49.518;11.280;2023-04-25T14:07:36;2.23;;;1.40;;
76210;SDS011;65003;49.518;11.280;2023-04-25T14:10:03;2.07;;;1.43;;
76210;SDS011;65003;49.518;11.280;2023-04-25T14:12:30;1.57;;;1.47;;
76210;SDS011;65003;49.518;11.280;2023-04-25T14:14:57;3.17;;;1.50;;
76210;SDS011;65003;49.518;11.280;2023-04-25T14:17:24;2.40;;;1.40;;
76210;SDS011;65003;49.518;11.280;2023-04-25T14:19:51;3.03;;;1.67;;
76210;SDS011;65003;49.518;11.280;2023-04-25T14:22:17;2.13;;;1.70;;
76210;SDS011;65003;49.518;11.280;2023-04-25T14:24:44;2.07;;;1.60;;
76210;SDS011;65003;49.518;11.280;2023-04-25T14:27:10;1.70;;;1.47;;
76210;SDS011;65003;49.518;11.280;2023-04-25T14:29:37;1.60;;;1.50;;
76210;SDS011;65003;49.518;11.280;2023-04-25T14:32:04;1.60;;;1.50;;
76210;SDS011;65003;49.518;11.280;2023-04-25T14:34:30;2.37;;;1.97;;